Time;durP1;ratioP1;P1;durP2;ratioP2;P2;SDS_P1;SDS_P2;PMS_P1;PMS_P2;Temp;Humidity;BMP_temperature;BMP_pressure;BME280_temperature;BME280_humidity;BME280_pressure;Samples;Min_cycle;Max_cycle;Signal;HPM_P1;HPM_P2
2022/04/27 00:02:23;;;;;;;11.98;7.40;;;9.50;99.90;;;8.53;89.73;101196.78;4980025;28;20038;-79
2022/04/27 00:04:50;;;;;;;18.95;8.88;;;9.50;99.90;;;8.55;90.05;101189.34;4975207;28;20113;-79
2022/04/27 00:07:18;;;;;;;15.85;8.10;;;9.50;99.90;;;8.53;89.79;101185.94;4990140;28;20104;-79
2022/04/27 00:09:45;;;;;;;16.58;8.77;;;9.50;99.90;;;8.55;90.00;101183.94;4989407;28;20676;-80
2022/04/27 00:12:12;;;;;;;14.07;8.20;;;9.60;99.90;;;8.55;90.31;101186.63;4986141;28;20067;-79
2022/04/27 00:14:39;;;;;;;12.38;8.13;;;9.50;99.90;;;8.54;89.72;101184.91;4972085;28;20509;-79
2022/04/27 00:17:07;;;;;;;18.67;9.05;;;9.50;99.90;;;8.54;88.59;101193.06;4986040;28;20050;-79
2022/04/27 00:19:35;;;;;;;15.10;8.95;;;9.60;99.90;;;8.56;88.88;101191.03;4983965;28;20143;-79
2022/04/27 00:22:03;;;;;;;18.13;8.15;;;9.60;99.90;;;8.57;88.45;101197.34;4971117;28;20460;-79
2022/04/27 00:24:30;;;;;;;16.52;8.35;;;9.60;99.90;;;8.57;88.19;101198.19;4986089;28;20134;-79
2022/04/27 00:26:57;;;;;;;18.30;7.90;;;9.60;99.90;;;8.59;88.33;101189.91;4984627;28;20468;-79
2022/04/27 00:29:24;;;;;;;14.75;8.38;;;9.70;99.90;;;8.58;88.21;101193.59;4970935;28;20121;-79
2022/04/27 00:31:51;;;;;;;17.48;8.02;;;9.70;99.90;;;8.59;88.50;101189.91;4984943;28;20128;-79
2022/04/27 00:34:19;;;;;;;20.50;9.05;;;9.70;99.90;;;8.59;88.23;101196.16;4984827;28;20125;-79
2022/04/27 00:36:47;;;;;;;16.75;8.55;;;9.60;99.90;;;8.60;88.24;101195.16;4983869;28;20098;-79
2022/04/27 00:39:16;;;;;;;15.00;8.85;;;9.60;99.90;;;8.59;87.51;101200.75;4993312;28;20113;-80
2022/04/27 00:41:59;;;;;;;15.25;8.27;;;9.70;99.90;;;8.60;87.79;101194.28;4987906;28;20409;-79
2022/04/27 00:44:26;;;;;;;13.35;8.27;;;9.60;99.90;;;8.60;88.21;101191.59;4974863;28;20051;-79
2022/04/27 00:46:53;;;;;;;18.63;8.65;;;9.70;99.90;;;8.59;87.96;101190.75;4983477;28;20083;-79
2022/04/27 00:49:21;;;;;;;14.65;8.27;;;9.70;99.90;;;8.63;88.25;101193.16;4981610;28;20565;-79
2022/04/27 00:51:50;;;;;;;13.85;8.13;;;9.70;99.90;;;8.57;86.61;101192.75;4993971;28;20393;-79
2022/04/27 00:54:22;;;;;;;18.63;8.75;;;9.60;99.90;;;8.57;87.04;101186.50;4975005;28;20624;-79
2022/04/27 00:56:50;;;;;;;13.75;8.10;;;9.60;99.90;;;8.57;86.52;101195.47;4988516;28;20056;-79
2022/04/27 00:59:18;;;;;;;18.50;8.20;;;9.60;99.90;;;8.55;86.40;101194.78;4992852;28;20274;-79
2022/04/27 01:01:45;;;;;;;19.27;8.52;;;9.50;99.90;;;8.53;86.48;101196.78;4993754;28;20074;-79
2022/04/27 01:04:12;;;;;;;15.98;7.75;;;9.50;99.90;;;8.53;86.23;101198.63;4995649;28;20046;-79
2022/04/27 01:06:41;;;;;;;13.32;7.35;;;9.50;99.90;;;8.53;86.05;101194.06;4985475;28;20034;-79
2022/04/27 01:09:12;;;;;;;13.98;7.88;;;9.50;99.90;;;8.53;86.16;101198.63;4972586;28;20050;-79
2022/04/27 01:11:40;;;;;;;15.55;8.23;;;9.60;99.90;;;8.51;86.50;101197.94;5004711;23;20133;-80
2022/04/27 01:14:07;;;;;;;14.80;7.75;;;9.50;99.90;;;8.52;86.24;101192.34;5000401;28;20041;-80
2022/04/27 01:16:34;;;;;;;17.92;7.70;;;9.50;99.90;;;8.52;86.85;101200.50;5011776;28;20422;-80
2022/04/27 01:19:01;;;;;;;12.35;7.90;;;9.50;99.90;;;8.51;86.87;101197.94;4995128;28;20051;-80
2022/04/27 01:21:30;;;;;;;12.65;8.00;;;9.50;99.90;;;8.50;87.28;101197.09;4999725;28;20042;-80
2022/04/27 01:24:06;;;;;;;15.65;7.68;;;9.50;99.90;;;8.48;86.77;101204.53;4992956;28;20046;-80
2022/04/27 01:26:34;;;;;;;12.98;7.13;;;9.40;99.90;;;8.48;86.75;101201.81;4991775;28;20054;-80
2022/04/27 01:29:01;;;;;;;13.40;7.55;;;9.40;99.90;;;8.47;87.51;101212.81;4991925;28;20042;-80
2022/04/27 01:31:30;;;;;;;15.02;8.18;;;9.40;99.90;;;8.45;87.52;101209.41;4975549;28;20136;-80
2022/04/27 01:33:57;;;;;;;17.05;8.57;;;9.40;99.90;;;8.44;87.56;101208.56;4991290;28;20138;-80
2022/04/27 01:36:25;;;;;;;17.02;7.30;;;9.40;99.90;;;8.42;87.17;101213.28;4977424;28;20129;-80
2022/04/27 01:38:55;;;;;;;12.95;7.60;;;9.40;99.90;;;8.42;86.96;101213.28;4976123;28;20404;-80
2022/04/27 01:41:22;;;;;;;15.50;7.50;;;9.30;99.90;;;8.41;87.72;101214.25;4992989;28;20042;-80
2022/04/27 01:43:50;;;;;;;16.25;8.02;;;9.30;99.90;;;8.37;88.10;101219.13;4979282;28;20035;-80
2022/04/27 01:46:17;;;;;;;16.88;7.78;;;9.30;99.90;;;8.36;87.84;101222.00;4986536;28;20055;-79
2022/04/27 01:48:44;;;;;;;14.20;7.50;;;9.30;99.90;;;8.34;88.19;101219.44;4971030;28;20050;-80
2022/04/27 01:51:11;;;;;;;13.25;8.10;;;9.20;99.90;;;8.32;87.60;101223.28;4984782;28;20042;-80
2022/04/27 01:56:25;;;;;;;18.67;7.88;;;9.20;99.90;;;8.29;87.49;101231.75;4990902;28;20836;-80
2022/04/27 01:58:54;;;;;;;17.25;8.60;;;9.20;99.90;;;8.26;87.78;101238.31;4990542;28;20058;-80
2022/04/27 02:01:22;;;;;;;15.85;8.13;;;9.20;99.90;;;8.23;88.52;101239.47;4978975;28;20050;-80
2022/04/27 02:03:51;;;;;;;14.32;7.97;;;9.20;99.90;;;8.19;87.64;101243.50;4972811;28;20143;-80
2022/04/27 02:06:19;;;;;;;14.43;8.60;;;9.10;99.90;;;8.17;88.61;101241.97;4991171;28;20093;-80
2022/04/27 02:08:47;;;;;;;14.90;8.02;;;9.00;99.90;;;8.14;88.60;101250.38;4979416;28;20142;-80
2022/04/27 02:11:20;;;;;;;12.18;7.80;;;9.00;99.90;;;8.09;88.44;101242.72;4973288;28;20397;-80
2022/04/27 02:14:00;;;;;;;19.70;8.23;;;9.00;99.90;;;8.05;88.29;101246.72;4990876;28;20674;-80
2022/04/27 02:16:31;;;;;;;16.15;8.25;;;8.90;99.90;;;8.02;88.62;101247.88;5003087;28;20081;-80
2022/04/27 02:18:59;;;;;;;18.08;8.40;;;8.90;99.90;;;7.96;88.87;101248.47;5003532;28;20463;-80
2022/04/27 02:21:26;;;;;;;14.15;8.43;;;8.80;99.90;;;7.91;89.18;101252.63;4980133;28;20065;-79
2022/04/27 02:23:53;;;;;;;13.02;7.57;;;8.80;99.90;;;7.85;90.14;101248.66;4975765;28;20569;-80
2022/04/27 02:26:21;;;;;;;17.05;8.77;;;8.70;99.90;;;7.80;90.34;101257.22;4971708;28;20144;-79
2022/04/27 02:28:48;;;;;;;13.38;8.70;;;8.60;99.90;;;7.74;90.42;101257.81;4983917;28;20046;-80
2022/04/27 02:31:17;;;;;;;16.15;9.02;;;8.60;99.90;;;7.70;90.31;101256.41;4987318;28;20449;-80
2022/04/27 02:33:46;;;;;;;19.52;8.93;;;8.50;99.90;;;7.64;90.97;101257.00;4971686;28;20133;-80
2022/04/27 02:36:14;;;;;;;17.13;8.95;;;8.40;99.90;;;7.60;91.34;101261.03;4984794;28;20129;-80
2022/04/27 02:38:42;;;;;;;17.48;8.45;;;8.40;99.90;;;7.54;91.19;101265.16;4986129;28;20046;-80
2022/04/27 02:41:12;;;;;;;14.80;8.67;;;8.30;99.90;;;7.50;91.12;101262.88;4971203;28;20043;-80
2022/04/27 02:43:39;;;;;;;18.58;9.00;;;8.20;99.90;;;7.46;92.12;101269.59;4984945;28;20312;-80
2022/04/27 02:46:09;;;;;;;14.70;9.52;;;8.20;99.90;;;7.40;91.37;101269.16;4985279;28;20767;-79
2022/04/27 02:51:48;;;;;;;15.73;8.98;;;8.10;99.90;;;7.38;91.99;101273.03;4970886;28;20517;-80
2022/04/27 02:54:13;;;;;;;18.63;9.23;;;8.10;99.90;;;7.32;91.85;101277.16;4978683;28;20054;-80
2022/04/27 02:56:40;;;;;;;15.65;9.57;;;8.10;99.90;;;7.30;91.85;101268.34;4971889;28;20050;-80
2022/04/27 02:59:07;;;;;;;18.05;9.57;;;8.10;99.90;;;7.26;92.44;101275.03;4991544;28;20078;-79
2022/04/27 03:01:35;;;;;;;17.15;10.00;;;8.10;99.90;;;7.24;93.00;101280.59;4977281;28;20054;-80
2022/04/27 03:04:04;;;;;;;17.58;8.65;;;8.00;99.90;;;7.21;92.28;101285.44;4972241;28;20042;-79
2022/04/27 03:06:31;;;;;;;15.38;8.77;;;8.00;99.90;;;7.18;93.01;101283.88;4989952;28;20177;-80
2022/04/27 03:08:58;;;;;;;19.02;9.43;;;7.90;99.90;;;7.14;93.26;101282.47;4989671;28;20065;-80
2022/04/27 03:11:26;;;;;;;18.95;9.77;;;7.90;99.90;;;7.14;93.10;101281.59;4989411;28;20046;-80
2022/04/27 03:14:27;;;;;;;14.70;9.48;;;7.90;99.90;;;7.11;92.76;101280.03;4980713;28;20046;-80
2022/04/27 03:16:54;;;;;;;15.43;9.20;;;7.90;99.90;;;7.11;93.87;101284.59;4986605;28;20081;-80
2022/04/27 03:19:23;;;;;;;17.40;9.38;;;7.90;99.90;;;7.10;93.42;101283.75;4977237;28;20042;-79
2022/04/27 03:21:51;;;;;;;14.48;9.02;;;7.90;99.90;;;7.09;92.59;101282.03;4989944;28;20117;-79
2022/04/27 03:24:21;;;;;;;15.13;9.38;;;7.90;99.90;;;7.08;92.92;101284.88;4971857;28;20046;-80
2022/04/27 03:26:49;;;;;;;14.68;9.55;;;7.90;99.90;;;7.05;93.38;101292.28;4973318;28;20043;-80
2022/04/27 03:29:19;;;;;;;12.65;9.55;;;7.90;99.90;;;7.03;93.87;101288.03;4969919;28;20101;-79
2022/04/27 03:31:53;;;;;;;18.13;9.77;;;7.90;99.90;;;6.98;94.03;101284.88;4988991;28;20184;-80
2022/04/27 03:34:20;;;;;;;16.25;9.48;;;7.80;99.90;;;6.93;93.75;101285.31;4981198;28;20038;-80
2022/04/27 03:36:49;;;;;;;15.57;9.50;;;7.80;99.90;;;6.89;93.48;101292.00;4970208;28;20042;-79
2022/04/27 03:39:20;;;;;;;18.52;10.00;;;7.70;99.90;;;6.88;94.21;101295.72;4986055;28;20054;-79
2022/04/27 03:41:47;;;;;;;17.70;10.55;;;7.70;99.90;;;6.86;94.17;101297.72;4980509;28;20787;-79
2022/04/27 03:44:14;;;;;;;14.25;9.63;;;7.70;99.90;;;6.83;94.59;101303.38;4988407;28;20081;-80
2022/04/27 03:46:42;;;;;;;17.38;10.15;;;7.70;99.90;;;6.78;94.57;101301.13;4989482;28;20050;-80
2022/04/27 03:49:09;;;;;;;18.55;10.18;;;7.70;99.90;;;6.75;94.20;101306.78;4988948;28;20038;-80
2022/04/27 03:51:36;;;;;;;16.63;10.40;;;7.60;99.90;;;6.71;94.02;101304.53;4988367;28;20051;-79
2022/04/27 03:54:05;;;;;;;18.23;10.73;;;7.50;99.90;;;6.68;93.97;101304.78;4970174;28;20094;-80
2022/04/27 03:56:33;;;;;;;18.27;10.52;;;7.50;99.90;;;6.61;94.44;101305.34;4971075;28;20065;-78
2022/04/27 03:59:00;;;;;;;19.55;10.20;;;7.40;99.90;;;6.58;94.88;101310.19;4970719;28;20046;-79
2022/04/27 04:01:28;;;;;;;18.90;10.20;;;7.30;99.90;;;6.55;95.15;101305.03;4972028;28;20051;-79
2022/04/27 04:03:58;;;;;;;16.40;10.15;;;7.30;99.90;;;6.52;95.07;101311.59;4983873;28;20484;-78
2022/04/27 04:06:25;;;;;;;17.33;10.55;;;7.30;99.90;;;6.50;94.88;101302.75;4988574;28;20054;-78
2022/04/27 04:08:53;;;;;;;22.65;10.50;;;7.20;99.90;;;6.47;94.70;101313.84;4988716;28;20046;-79
2022/04/27 04:11:21;;;;;;;16.25;10.18;;;7.20;99.90;;;6.44;95.61;101320.41;4998145;28;20073;-79
2022/04/27 04:14:09;;;;;;;15.13;10.25;;;7.20;99.90;;;6.39;95.58;101313.69;4991887;28;20042;-78
2022/04/27 04:16:49;;;;;;;20.60;10.73;;;7.20;99.90;;;6.36;95.67;101322.94;4989179;28;20058;-78
2022/04/27 04:19:35;;;;;;;17.52;10.25;;;7.20;99.90;;;6.35;95.48;101320.38;4971279;28;20563;-78
2022/04/27 04:22:19;;;;;;;19.17;10.75;;;7.10;99.90;;;6.31;95.72;101325.19;4980744;28;20046;-79
2022/04/27 04:30:30;;;;;;;14.32;10.25;;;7.10;99.90;;;6.23;96.38;101333.13;4987967;28;20042;-78
2022/04/27 04:33:28;;;;;;;24.17;11.20;;;7.00;99.90;;;6.21;96.73;101335.97;4988555;28;20413;-78
2022/04/27 04:35:57;;;;;;;21.80;10.95;;;7.00;99.90;;;6.21;96.54;101338.66;4985243;28;20054;-78
2022/04/27 04:38:26;;;;;;;19.20;12.23;;;7.00;99.90;;;6.21;96.84;101346.78;4969300;28;20150;-78
2022/04/27 04:40:57;;;;;;;17.67;11.00;;;7.00;99.90;;;6.20;97.31;101355.88;4984861;28;20077;-78
2022/04/27 04:43:36;;;;;;;20.08;11.63;;;7.00;99.90;;;6.20;97.51;101355.88;4988242;28;20046;-78
2022/04/27 04:46:03;;;;;;;19.00;11.65;;;7.00;99.90;;;6.18;97.22;101360.56;4988844;28;20496;-78
2022/04/27 04:48:48;;;;;;;21.55;11.90;;;7.10;99.90;;;6.17;97.71;101352.56;4989424;28;20442;-78
2022/04/27 04:51:28;;;;;;;19.20;10.88;;;7.10;99.90;;;6.17;97.58;101364.25;4979856;28;20552;-78
2022/04/27 04:54:14;;;;;;;20.50;11.50;;;7.10;99.90;;;6.16;97.97;101365.25;4972487;28;20038;-78
2022/04/27 04:56:56;;;;;;;19.45;10.63;;;7.10;99.90;;;6.17;97.71;101366.97;4985286;28;20065;-78
2022/04/27 04:59:39;;;;;;;24.40;11.57;;;7.10;99.90;;;6.21;98.19;101367.56;4982600;28;20129;-78
2022/04/27 05:02:31;;;;;;;19.95;11.98;;;7.20;99.90;;;6.24;98.32;101378.97;4994814;28;20583;-78
2022/04/27 05:05:24;;;;;;;19.65;12.80;;;7.20;99.90;;;6.29;98.41;101375.00;4969572;28;20508;-78
2022/04/27 05:08:07;;;;;;;18.70;11.75;;;7.30;99.90;;;6.33;98.58;101381.84;4969071;28;20137;-78
2022/04/27 05:10:41;;;;;;;24.13;12.10;;;7.30;99.90;;;6.36;98.56;101395.06;4984689;28;20054;-81
2022/04/27 05:13:26;;;;;;;21.45;12.35;;;7.30;99.90;;;6.37;99.39;101394.94;4986457;28;20062;-78
2022/04/27 05:16:20;;;;;;;20.58;11.73;;;7.40;99.90;;;6.41;99.42;101399.06;4988220;28;20042;-79
2022/04/27 05:19:01;;;;;;;22.98;12.35;;;7.40;99.90;;;6.47;99.92;101400.38;4973811;28;20055;-77
2022/04/27 05:21:47;;;;;;;28.95;13.93;;;7.50;99.90;;;6.52;99.65;101397.28;4983530;28;20058;-77
2022/04/27 05:24:46;;;;;;;28.67;15.13;;;7.60;99.90;;;6.59;99.68;101407.41;4979214;28;20655;-77
2022/04/27 05:27:30;;;;;;;20.77;13.45;;;7.70;99.90;;;6.64;99.94;101402.47;4976425;28;20685;-78
2022/04/27 05:33:29;;;;;;;23.10;13.57;;;7.80;99.90;;;6.78;100.00;101409.31;4973720;28;20047;-77
2022/04/27 05:36:33;;;;;;;25.20;13.57;;;7.90;99.90;;;6.85;99.34;101409.63;4972556;28;20051;-77
2022/04/27 05:39:26;;;;;;;22.90;13.20;;;8.10;99.90;;;6.94;99.27;101416.06;4983955;28;20058;-77
2022/04/27 05:42:33;;;;;;;26.50;13.73;;;8.20;99.90;;;7.05;98.83;101416.78;4980792;28;20082;-77
2022/04/27 05:45:39;;;;;;;20.27;13.43;;;8.30;99.90;;;7.15;98.26;101418.66;4972312;28;20039;-77
2022/04/27 05:48:22;;;;;;;25.88;14.38;;;8.50;99.90;;;7.24;97.90;101415.97;4971914;28;20051;-77
2022/04/27 05:51:14;;;;;;;25.10;13.60;;;8.60;99.90;;;7.32;97.10;101417.97;4974578;28;20054;-77
2022/04/27 05:54:07;;;;;;;22.23;13.43;;;8.70;99.90;;;7.47;97.81;101423.84;4980010;28;20082;-78
2022/04/27 05:56:55;;;;;;;25.17;13.57;;;8.80;99.90;;;7.56;96.93;101419.44;4989519;28;20050;-77
2022/04/27 05:59:42;;;;;;;22.73;13.85;;;8.90;99.90;;;7.68;96.71;101423.69;4991064;28;20624;-77
2022/04/27 06:02:29;;;;;;;24.73;14.52;;;9.10;99.90;;;7.81;96.79;101426.97;4977054;28;20039;-77
2022/04/27 06:04:57;;;;;;;22.55;14.07;;;9.30;99.90;;;7.90;96.35;101427.97;4987419;28;20137;-78
2022/04/27 06:07:26;;;;;;;21.63;14.07;;;9.40;99.90;;;8.01;95.65;101424.22;4973324;28;20043;-78
2022/04/27 06:09:55;;;;;;;23.70;13.88;;;9.60;99.90;;;8.13;95.44;101428.47;4991087;28;20074;-78
2022/04/27 06:12:34;;;;;;;27.73;14.60;;;9.80;99.90;;;8.23;94.11;101431.16;4977137;28;20050;-78
2022/04/27 06:15:25;;;;;;;22.58;13.82;;;9.80;99.90;;;8.35;93.85;101426.41;4990351;28;20396;-78
2022/04/27 06:17:58;;;;;;;23.60;14.73;;;10.00;99.90;;;8.41;93.65;101431.25;4990159;28;20104;-77
2022/04/27 06:20:25;;;;;;;26.17;14.20;;;10.10;99.90;;;8.45;92.74;101432.69;4991473;28;20709;-77
2022/04/27 06:22:56;;;;;;;23.50;14.02;;;10.10;99.90;;;8.59;92.37;101437.66;4986644;28;20520;-77
2022/04/27 06:25:25;;;;;;;21.88;14.05;;;10.40;99.90;;;8.83;91.83;101436.25;4982638;28;20050;-78
2022/04/27 06:28:05;;;;;;;23.10;14.02;;;11.10;99.60;;;9.13;91.30;101435.06;4976650;28;20042;-77
2022/04/27 06:30:35;;;;;;;22.45;14.38;;;12.00;98.10;;;9.41;90.85;101434.19;4988940;28;20105;-78
2022/04/27 06:33:03;;;;;;;24.93;14.27;;;12.80;94.70;;;9.66;90.83;101435.28;4978604;28;20050;-77
2022/04/27 06:35:31;;;;;;;18.92;12.90;;;13.30;92.30;;;9.85;89.48;101426.94;4988914;28;20535;-77
2022/04/27 06:38:07;;;;;;;25.20;14.25;;;13.70;90.40;;;10.05;87.74;101433.06;4976467;28;20503;-77
2022/04/27 06:40:34;;;;;;;19.25;12.93;;;13.90;87.70;;;10.22;87.37;101438.59;4989522;28;20417;-77
2022/04/27 06:43:02;;;;;;;24.85;13.18;;;13.90;88.20;;;10.30;84.48;101435.94;4979461;28;20085;-77
2022/04/27 06:45:47;;;;;;;25.92;14.20;;;13.70;87.10;;;10.41;84.50;101440.28;4988166;28;20141;-78
2022/04/27 06:48:41;;;;;;;23.33;13.85;;;13.50;87.80;;;10.48;84.02;101439.47;4971172;28;20047;-77
2022/04/27 06:51:40;;;;;;;19.55;11.90;;;13.40;89.90;;;10.62;84.84;101437.16;4970616;28;20058;-77
2022/04/27 06:54:33;;;;;;;30.58;13.07;;;13.20;91.30;;;10.73;83.51;101445.91;5008195;28;20562;-77
2022/04/27 06:57:19;;;;;;;19.05;12.75;;;13.10;91.90;;;10.76;82.80;101447.47;4995473;28;20057;-77
2022/04/27 07:00:10;;;;;;;22.92;12.88;;;13.00;92.00;;;10.67;81.07;101443.00;4991368;28;20427;-77
2022/04/27 07:02:39;;;;;;;22.48;13.40;;;12.60;91.40;;;10.68;82.12;101453.72;4989110;28;20046;-78
2022/04/27 07:05:09;;;;;;;19.98;12.20;;;12.50;93.50;;;10.69;82.31;101447.25;4981976;28;20045;-77
2022/04/27 07:07:37;;;;;;;25.05;11.98;;;12.40;94.10;;;10.78;82.94;101447.31;4971587;28;20149;-77
2022/04/27 07:10:06;;;;;;;20.02;11.43;;;12.40;94.80;;;10.75;82.95;101451.19;4971647;28;20042;-77
2022/04/27 07:12:34;;;;;;;21.38;12.43;;;12.40;94.80;;;10.79;81.77;101454.44;4984877;28;20038;-77
2022/04/27 07:15:01;;;;;;;16.77;11.10;;;12.30;93.40;;;10.77;80.68;101457.31;5006787;23;20420;-79
2022/04/27 07:17:28;;;;;;;20.55;10.48;;;12.30;92.40;;;10.81;81.73;101458.69;4981893;28;20073;-79
2022/04/27 07:19:55;;;;;;;16.75;9.65;;;12.20;94.40;;;10.86;81.46;101463.69;4986972;28;20046;-79
2022/04/27 07:22:23;;;;;;;18.85;10.10;;;12.30;94.10;;;10.90;80.43;101463.16;4979772;28;20149;-80
2022/04/27 07:24:50;;;;;;;16.08;9.68;;;12.30;93.30;;;10.93;79.76;101473.75;4986351;28;20042;-80
2022/04/27 07:27:19;;;;;;;17.77;9.60;;;12.40;93.70;;;10.99;80.25;101463.22;4990659;28;20149;-80
2022/04/27 07:29:46;;;;;;;20.98;10.30;;;12.40;93.40;;;10.92;78.40;101463.00;4990857;28;20057;-80
2022/04/27 07:32:13;;;;;;;16.73;9.20;;;12.20;92.70;;;10.97;79.41;101474.28;4990626;28;20042;-80
2022/04/27 07:34:41;;;;;;;19.63;9.85;;;12.30;93.50;;;11.02;79.84;101466.44;5007972;28;20411;-81
2022/04/27 07:37:10;;;;;;;17.90;10.23;;;12.30;93.60;;;11.12;80.88;101469.91;4990327;28;20054;-81
2022/04/27 07:39:37;;;;;;;17.90;9.50;;;12.40;95.30;;;11.20;79.75;101466.38;4990617;28;20125;-81
2022/04/27 07:42:05;;;;;;;17.67;10.07;;;12.50;94.70;;;11.23;77.97;101466.03;4989583;28;20041;-81
2022/04/27 07:44:34;;;;;;;22.23;10.80;;;12.50;91.70;;;11.19;78.04;101470.09;5009314;28;20080;-81
2022/04/27 07:47:01;;;;;;;16.67;9.98;;;12.40;91.90;;;11.25;78.70;101474.03;4998797;28;20121;-80
2022/04/27 07:49:28;;;;;;;19.08;9.70;;;12.50;93.50;;;11.25;77.31;101474.03;4990214;28;20038;-81
2022/04/27 07:51:57;;;;;;;16.45;9.15;;;12.50;92.10;;;11.29;77.91;101481.72;4987109;28;20065;-80
2022/04/27 07:54:24;;;;;;;15.48;9.85;;;12.50;92.60;;;11.35;77.74;101475.59;5002921;28;20046;-81
2022/04/27 07:56:51;;;;;;;17.35;9.48;;;12.60;92.00;;;11.40;78.77;101486.00;4978539;28;20042;-81
2022/04/27 07:59:18;;;;;;;17.50;9.40;;;12.60;93.80;;;11.42;76.75;101481.22;4990264;28;20038;-80
2022/04/27 08:01:47;;;;;;;22.00;9.95;;;12.60;91.10;;;11.45;75.96;101483.63;4989904;28;20038;-80
2022/04/27 08:04:16;;;;;;;15.70;8.93;;;12.70;90.40;;;11.45;75.81;101485.50;4995996;28;20073;-80
2022/04/27 08:06:43;;;;;;;16.40;9.32;;;12.60;91.10;;;11.53;76.20;101488.25;4990409;28;20107;-81
2022/04/27 08:09:11;;;;;;;15.52;8.73;;;12.70;91.80;;;11.57;75.61;101483.31;4990106;28;20046;-80
2022/04/27 08:11:40;;;;;;;14.85;9.18;;;12.80;90.90;;;11.59;74.72;101498.47;4987734;28;20046;-80
2022/04/27 08:14:07;;;;;;;14.82;9.10;;;12.80;90.20;;;11.61;75.15;101482.81;5003850;28;20044;-80
2022/04/27 08:16:35;;;;;;;16.83;9.40;;;12.90;89.90;;;11.64;74.34;101487.94;4991910;28;20030;-81
2022/04/27 08:19:03;;;;;;;17.70;8.88;;;12.90;90.40;;;11.70;74.13;101489.13;4990079;28;20496;-81
2022/04/27 08:21:31;;;;;;;14.85;8.05;;;12.90;90.50;;;11.76;71.39;101488.47;4989948;28;20073;-80
2022/04/27 08:23:59;;;;;;;13.15;7.40;;;13.00;88.40;;;11.79;72.64;101492.75;5002788;28;20127;-81
2022/04/27 08:26:27;;;;;;;12.25;7.32;;;13.00;89.10;;;11.85;73.10;101492.91;5001600;28;20161;-81
2022/04/27 08:28:54;;;;;;;13.43;7.35;;;13.10;89.90;;;11.88;72.29;101491.69;4990131;28;20584;-81
2022/04/27 08:31:21;;;;;;;14.73;7.53;;;13.10;88.30;;;11.90;71.81;101490.56;4990052;28;20046;-81
2022/04/27 08:33:48;;;;;;;10.93;6.15;;;13.10;87.70;;;11.87;69.33;101495.47;5002580;28;20113;-80
2022/04/27 08:36:17;;;;;;;9.38;5.90;;;13.10;84.70;;;11.87;66.46;101495.47;5009912;28;20085;-81
2022/04/27 08:38:44;;;;;;;11.02;5.47;;;13.10;84.30;;;11.90;67.70;101495.16;4988878;28;20415;-81
2022/04/27 08:41:11;;;;;;;11.93;5.95;;;13.10;85.80;;;11.99;69.29;101499.59;4989767;28;20121;-81
2022/04/27 08:43:39;;;;;;;12.27;6.30;;;13.20;86.20;;;12.03;68.28;101505.56;4997477;28;20053;-80
2022/04/27 08:46:06;;;;;;;10.00;5.78;;;13.20;86.00;;;12.11;68.98;101503.69;4989836;28;20057;-81
2022/04/27 08:48:33;;;;;;;10.38;6.18;;;13.30;85.00;;;12.05;64.63;101509.84;4989550;28;20129;-80
2022/04/27 08:51:03;;;;;;;12.20;6.63;;;13.20;80.20;;;12.01;65.38;101507.59;4989788;28;20121;-82
2022/04/27 08:53:32;;;;;;;13.77;6.63;;;13.20;83.30;;;12.09;66.73;101513.09;4999652;28;20069;-82
2022/04/27 08:55:59;;;;;;;11.95;6.57;;;13.30;85.20;;;12.12;66.68;101510.84;5004062;28;20038;-82
2022/04/27 08:58:26;;;;;;;12.15;6.65;;;13.30;83.90;;;12.15;65.84;101516.97;4992684;28;20077;-80
2022/04/27 09:00:54;;;;;;;14.85;7.40;;;13.30;83.20;;;12.15;65.15;101514.25;4991127;28;20135;-81
2022/04/27 09:03:26;;;;;;;15.90;7.47;;;13.30;82.10;;;12.18;66.93;101513.91;5002689;28;20117;-80
2022/04/27 09:05:55;;;;;;;10.93;6.97;;;13.30;85.30;;;12.18;64.53;101513.91;4998126;28;20050;-80
2022/04/27 09:08:25;;;;;;;11.68;6.55;;;13.30;80.30;;;12.14;63.93;101513.41;4991926;28;20066;-80
2022/04/27 09:11:17;;;;;;;13.15;7.43;;;13.30;81.70;;;12.16;64.14;101514.09;4991802;28;20051;-80
2022/04/27 09:13:50;;;;;;;17.15;7.47;;;13.30;80.90;;;12.19;65.48;101511.03;5004051;28;20128;-80
2022/04/27 09:16:20;;;;;;;12.38;6.72;;;13.40;83.90;;;12.28;66.25;101517.31;4995661;28;20452;-80
2022/04/27 09:22:02;;;;;;;17.13;7.05;;;13.60;83.80;;;12.36;65.45;101516.50;4993287;28;20038;-80
2022/04/27 09:24:47;;;;;;;11.82;7.38;;;13.60;82.30;;;12.40;66.13;101515.13;5008186;28;20089;-80
2022/04/27 09:27:18;;;;;;;13.32;7.40;;;13.70;83.70;;;12.44;65.19;101511.88;4988905;28;20417;-80
2022/04/27 09:29:57;;;;;;;15.02;7.32;;;13.80;83.40;;;12.46;64.37;101520.72;4993116;28;20073;-80
2022/04/27 09:32:25;;;;;;;17.92;7.53;;;13.80;80.50;;;12.43;62.20;101518.38;4989539;28;20465;-80
2022/04/27 09:34:52;;;;;;;16.80;8.65;;;13.60;78.40;;;12.35;61.88;101521.06;4995531;28;20122;-82
2022/04/27 09:37:21;;;;;;;14.93;7.80;;;13.50;78.20;;;12.36;63.35;101521.94;4990923;28;20125;-83
2022/04/27 09:40:02;;;;;;;15.65;7.55;;;13.60;81.10;;;12.41;64.22;101517.66;4983083;28;20035;-81
2022/04/27 09:42:35;;;;;;;19.40;7.68;;;13.60;82.20;;;12.44;64.06;101519.22;4986736;28;20655;-86
2022/04/27 09:45:16;;;;;;;12.60;7.03;;;13.70;81.80;;;12.45;63.40;101508.13;4987959;28;20215;-85
2022/04/27 09:47:49;;;;;;;14.38;7.05;;;13.70;81.60;;;12.55;64.51;101518.00;4978082;28;20145;-81
2022/04/27 09:50:17;;;;;;;13.48;7.00;;;13.80;82.50;;;12.61;64.29;101520.03;4986423;28;20117;-81
2022/04/27 09:52:45;;;;;;;13.35;7.53;;;13.90;81.30;;;12.63;62.89;101520.72;4992661;28;20073;-84
2022/04/27 09:55:12;;;;;;;13.77;7.25;;;13.90;80.40;;;12.67;64.33;101525.66;4992594;28;20046;-84
2022/04/27 09:57:42;;;;;;;10.85;7.30;;;14.00;82.10;;;12.75;64.19;101510.28;4992241;28;20120;-84
2022/04/27 10:00:12;;;;;;;9.60;6.90;;;14.10;82.00;;;12.76;64.44;101518.31;4992631;28;20042;-84
2022/04/27 10:02:43;;;;;;;16.00;7.68;;;14.10;81.60;;;12.79;63.95;101514.34;4989218;28;20145;-84
2022/04/27 10:05:10;;;;;;;12.48;7.43;;;14.10;81.30;;;12.81;63.33;101515.91;4991909;28;20042;-83
2022/04/27 10:07:38;;;;;;;13.52;7.72;;;14.10;80.00;;;12.80;62.72;101519.66;4992032;28;20044;-83
2022/04/27 10:10:07;;;;;;;13.93;7.45;;;14.10;80.00;;;12.81;62.86;101515.91;4989817;28;20046;-84
2022/04/27 10:12:39;;;;;;;12.65;7.30;;;14.10;80.60;;;12.84;63.13;101510.06;4992067;28;20039;-84
2022/04/27 10:15:09;;;;;;;10.98;7.50;;;14.20;81.10;;;12.84;62.36;101510.06;4992146;28;20045;-84
2022/04/27 10:17:37;;;;;;;13.73;7.28;;;14.20;79.70;;;12.89;62.36;101504.09;4991947;28;20500;-84
2022/04/27 10:20:28;;;;;;;14.90;8.20;;;14.20;80.30;;;12.94;61.99;101507.13;4990692;28;20476;-83
2022/04/27 10:23:24;;;;;;;14.68;6.97;;;14.30;80.10;;;12.98;61.99;101499.44;4991930;28;20153;-84
2022/04/27 10:26:16;;;;;;;13.52;7.40;;;14.30;79.90;;;13.05;62.18;101500.44;4992011;28;20064;-84
2022/04/27 10:28:50;;;;;;;14.57;7.97;;;14.40;78.90;;;13.10;62.31;101506.25;4975105;28;20540;-86
2022/04/27 10:32:05;;;;;;;14.05;7.65;;;14.40;80.50;;;13.13;62.23;101497.69;4972723;28;20660;-86
2022/04/27 10:34:33;;;;;;;13.35;8.48;;;14.40;79.60;;;13.12;61.84;101496.00;4985236;28;20050;-86
2022/04/27 10:37:03;;;;;;;13.18;7.60;;;14.50;79.10;;;13.17;65.17;101496.28;4991622;28;20104;-86
2022/04/27 10:39:32;;;;;;;14.77;7.85;;;14.50;81.30;;;13.19;61.23;101502.44;4991471;28;20061;-87
2022/04/27 10:42:32;;;;;;;16.27;8.13;;;14.50;78.20;;;13.15;59.60;101503.81;4991817;28;20043;-87
2022/04/27 10:45:13;;;;;;;12.38;7.63;;;14.40;76.40;;;13.11;59.69;101494.28;4992443;28;20038;-86
2022/04/27 10:47:44;;;;;;;14.25;7.97;;;14.40;76.50;;;13.09;59.33;101493.59;4979430;28;20050;-86
2022/04/27 10:50:33;;;;;;;12.63;7.53;;;14.40;77.10;;;13.12;60.29;101496.00;4977430;28;20798;-86
2022/04/27 10:53:20;;;;;;;12.90;7.35;;;14.40;77.80;;;13.24;62.53;101501.91;4991816;28;20762;-85